createdAt,value
2022-09-05T00:01:28.945Z,15.93
2022-09-05T00:04:08.401Z,15.96
2022-09-05T00:06:52.754Z,15.90
2022-09-05T00:09:24.311Z,15.83
2022-09-05T00:11:59.782Z,15.84
2022-09-05T00:14:34.416Z,15.82
2022-09-05T00:17:23.400Z,15.80
2022-09-05T00:24:23.269Z,15.82
2022-09-05T00:24:29.051Z,15.82
2022-09-05T00:25:49.585Z,15.80
2022-09-05T00:28:26.851Z,15.78
2022-09-05T00:31:50.727Z,15.75
2022-09-05T00:33:50.220Z,15.74
2022-09-05T00:36:22.107Z,15.74
2022-09-05T00:38:53.656Z,15.71
2022-09-05T00:41:25.538Z,15.71
2022-09-05T00:43:58.412Z,15.69
2022-09-05T00:46:32.063Z,15.72
2022-09-05T00:49:03.767Z,15.67
2022-09-05T00:51:35.694Z,15.69
2022-09-05T00:54:07.221Z,15.67
2022-09-05T00:56:39.058Z,15.63
2022-09-05T00:59:10.586Z,15.61
2022-09-05T01:01:42.524Z,15.57
2022-09-05T01:04:14.089Z,15.58
2022-09-05T01:06:45.947Z,15.49
2022-09-05T01:09:17.470Z,15.52
2022-09-05T01:11:49.767Z,15.51
2022-09-05T01:14:21.787Z,15.48
2022-09-05T01:16:53.382Z,15.48
2022-09-05T01:19:25.397Z,15.41
2022-09-05T01:21:56.939Z,15.41
2022-09-05T01:24:28.899Z,15.36
2022-09-05T01:27:00.418Z,15.32
2022-09-05T01:29:32.417Z,15.32
2022-09-05T01:32:03.936Z,15.31
2022-09-05T01:34:35.822Z,15.31
2022-09-05T01:37:07.345Z,15.30
2022-09-05T01:40:14.549Z,15.24
2022-09-05T01:42:47.189Z,15.24
2022-09-05T01:45:19.042Z,15.24
2022-09-05T01:47:50.578Z,15.24
2022-09-05T01:50:23.422Z,15.21
2022-09-05T01:52:57.751Z,15.21
2022-09-05T01:55:34.894Z,15.24
2022-09-05T01:58:25.266Z,15.20
2022-09-05T02:00:57.109Z,15.22
2022-09-05T02:03:48.603Z,15.24
2022-09-05T02:06:20.427Z,15.25
2022-09-05T02:08:51.961Z,15.25
2022-09-05T02:11:35.785Z,15.26
2022-09-05T02:14:07.819Z,15.23
2022-09-05T02:16:39.646Z,15.19
2022-09-05T02:19:15.032Z,15.20
2022-09-05T02:21:56.062Z,15.16
2022-09-05T02:24:28.725Z,15.16
2022-09-05T02:27:00.934Z,15.12
2022-09-05T02:29:32.455Z,15.14
2022-09-05T02:32:04.407Z,15.11
2022-09-05T02:34:35.918Z,15.13
2022-09-05T02:37:08.558Z,15.12
2022-09-05T02:45:07.848Z,15.11
2022-09-05T02:45:13.551Z,15.10
2022-09-05T02:45:26.774Z,15.07
2022-09-05T02:47:58.950Z,15.04
2022-09-05T02:56:17.927Z,15.03
2022-09-05T02:57:29.755Z,15.01
2022-09-05T02:58:05.729Z,14.97
2022-09-05T02:59:11.008Z,14.96
2022-09-05T03:01:43.033Z,14.95
2022-09-05T03:04:14.573Z,14.92
2022-09-05T03:06:46.541Z,14.86
2022-09-05T03:09:18.086Z,14.89
2022-09-05T03:11:50.012Z,14.85
2022-09-05T03:14:21.535Z,14.89
2022-09-05T03:16:53.496Z,14.84
2022-09-05T03:19:25.047Z,14.79
2022-09-05T03:21:56.857Z,14.78
2022-09-05T03:24:28.379Z,14.76
2022-09-05T03:27:00.254Z,14.71
2022-09-05T03:29:31.778Z,14.69
2022-09-05T03:32:03.583Z,14.68
2022-09-05T03:34:35.532Z,14.62
2022-09-05T03:37:07.054Z,14.63
2022-09-05T03:39:39.157Z,14.63
2022-09-05T03:42:14.626Z,14.60
2022-09-05T03:44:47.096Z,14.59
2022-09-05T03:47:18.624Z,14.58
2022-09-05T03:53:28.057Z,14.52
2022-09-05T03:57:16.384Z,14.49
2022-09-05T03:57:22.992Z,14.48
2022-09-05T03:58:41.947Z,14.46
2022-09-05T04:03:14.483Z,14.44
2022-09-05T04:08:17.766Z,14.38
2022-09-05T04:08:19.337Z,14.42
2022-09-05T04:09:53.701Z,14.35
2022-09-05T04:12:25.333Z,14.34
2022-09-05T04:14:57.267Z,14.36
2022-09-05T04:17:28.857Z,14.31
2022-09-05T04:20:01.119Z,14.30
2022-09-05T04:22:32.638Z,14.23
2022-09-05T04:25:04.237Z,14.21
2022-09-05T04:27:36.231Z,14.21
2022-09-05T04:30:36.160Z,14.19
2022-09-05T04:32:59.565Z,14.21
2022-09-05T04:35:31.465Z,14.21
2022-09-05T04:38:02.976Z,14.19
2022-09-05T04:40:34.979Z,14.22
2022-09-05T04:43:06.692Z,14.20
2022-09-05T04:45:38.566Z,14.27
2022-09-05T04:48:11.118Z,14.34
2022-09-05T04:50:44.092Z,14.39
2022-09-05T04:53:15.742Z,14.40
2022-09-05T04:55:51.004Z,14.49
2022-09-05T04:58:22.711Z,14.53
2022-09-05T05:06:02.966Z,14.57
2022-09-05T05:06:17.345Z,14.62
2022-09-05T05:06:46.543Z,14.74
2022-09-05T05:09:18.641Z,14.74
2022-09-05T05:17:53.970Z,14.93
2022-09-05T05:18:06.251Z,15.07
2022-09-05T05:18:14.369Z,15.19
2022-09-05T05:20:41.689Z,13.92
2022-09-05T05:23:15.179Z,15.52
2022-09-05T05:25:47.145Z,15.50
2022-09-05T05:28:32.063Z,14.80
2022-09-05T05:31:03.631Z,15.62
2022-09-05T05:33:35.179Z,15.65
2022-09-05T05:36:07.030Z,15.53
2022-09-05T05:38:38.769Z,15.67
2022-09-05T05:41:10.570Z,15.65
2022-09-05T05:43:46.271Z,15.84
2022-09-05T05:46:18.659Z,15.70
2022-09-05T05:48:57.457Z,15.90
2022-09-05T05:51:54.705Z,15.96
2022-09-05T05:54:21.681Z,15.88
2022-09-05T05:56:53.223Z,15.98
2022-09-05T05:59:25.085Z,16.18
2022-09-05T06:01:57.511Z,16.17
2022-09-05T06:04:29.143Z,16.34
2022-09-05T06:07:00.979Z,16.25
2022-09-05T06:14:52.022Z,16.46
2022-09-05T06:14:56.829Z,16.75
2022-09-05T06:15:22.063Z,17.04
2022-09-05T06:17:54.429Z,17.18
2022-09-05T06:22:04.752Z,17.42
2022-09-05T06:23:39.933Z,17.18
2022-09-05T06:26:13.179Z,17.26
2022-09-05T06:28:44.720Z,17.40
2022-09-05T06:31:30.166Z,17.36
2022-09-05T06:34:02.607Z,17.27
2022-09-05T06:36:34.628Z,17.46
2022-09-05T06:39:06.376Z,17.49
2022-09-05T06:41:38.192Z,17.62
2022-09-05T06:44:12.800Z,17.97
2022-09-05T06:47:05.825Z,18.24
2022-09-05T06:49:39.327Z,18.38
2022-09-05T06:52:29.739Z,18.23
2022-09-05T06:55:02.115Z,18.45
2022-09-05T06:57:34.007Z,18.56
2022-09-05T07:00:18.189Z,18.66
2022-09-05T07:02:59.993Z,18.69
2022-09-05T07:05:38.811Z,18.58
2022-09-05T07:08:35.231Z,18.73
2022-09-05T07:11:15.621Z,18.57
2022-09-05T07:13:48.522Z,18.34
2022-09-05T07:16:36.995Z,18.87
2022-09-05T07:19:10.198Z,19.11
2022-09-05T07:21:42.035Z,19.11
2022-09-05T07:24:18.798Z,19.32
2022-09-05T07:27:09.040Z,19.80
2022-09-05T07:29:41.086Z,19.84
2022-09-05T07:32:25.165Z,19.85
2022-09-05T07:34:57.233Z,20.14
2022-09-05T07:37:28.754Z,20.10
2022-09-05T07:40:06.702Z,19.96
2022-09-05T07:43:08.737Z,20.12
2022-09-05T07:45:42.168Z,20.39
2022-09-05T07:48:34.134Z,20.28
2022-09-05T07:54:25.433Z,20.20
2022-09-05T07:57:03.720Z,20.09
2022-09-05T07:57:22.536Z,20.50
2022-09-05T07:59:42.956Z,20.88
2022-09-05T08:02:14.514Z,20.92
2022-09-05T08:04:46.427Z,21.50
2022-09-05T08:07:49.661Z,21.51
2022-09-05T08:10:10.630Z,21.62
2022-09-05T08:12:43.731Z,21.96
2022-09-05T08:16:10.176Z,21.70
2022-09-05T08:18:25.762Z,21.71
2022-09-05T08:20:57.715Z,20.75
2022-09-05T08:23:29.231Z,22.13
2022-09-05T08:26:01.122Z,22.41
2022-09-05T08:28:39.133Z,22.23
2022-09-05T08:31:11.483Z,22.27
2022-09-05T08:33:43.825Z,22.49
2022-09-05T08:36:15.325Z,22.70
2022-09-05T08:38:47.225Z,22.60
2022-09-05T08:41:18.776Z,22.53
2022-09-05T08:46:40.019Z,22.86
2022-09-05T08:46:50.510Z,22.95
2022-09-05T08:49:32.293Z,23.48
2022-09-05T08:52:14.153Z,23.69
2022-09-05T08:54:45.973Z,23.40
2022-09-05T08:57:17.526Z,23.55
2022-09-05T09:00:02.711Z,23.20
2022-09-05T09:02:47.208Z,24.04
2022-09-05T09:05:20.638Z,23.84
2022-09-05T09:07:52.665Z,23.95
2022-09-05T09:10:25.885Z,24.09
2022-09-05T09:12:58.076Z,23.65
2022-09-05T09:15:29.582Z,23.51
2022-09-05T09:18:01.404Z,23.87
2022-09-05T09:20:44.863Z,24.50
2022-09-05T09:23:32.447Z,24.07
2022-09-05T09:26:04.329Z,24.22
2022-09-05T09:28:50.031Z,24.22
2022-09-05T09:31:23.003Z,25.09
2022-09-05T09:33:54.713Z,25.11
2022-09-05T09:36:26.227Z,25.46
2022-09-05T09:38:58.217Z,25.70
2022-09-05T09:41:45.246Z,25.63
2022-09-05T09:44:17.776Z,26.15
2022-09-05T09:46:50.704Z,25.65
2022-09-05T09:49:23.739Z,25.77
2022-09-05T09:51:55.338Z,25.66
2022-09-05T09:54:27.428Z,25.61
2022-09-05T09:56:58.989Z,25.78
2022-09-05T09:59:31.123Z,26.37
2022-09-05T10:03:36.312Z,26.44
2022-09-05T10:10:34.326Z,26.29
2022-09-05T10:10:57.450Z,26.75
2022-09-05T10:10:59.536Z,26.61
2022-09-05T10:13:29.782Z,26.60
2022-09-05T10:16:04.017Z,26.34
2022-09-05T10:18:38.165Z,26.58
2022-09-05T10:21:16.305Z,26.26
2022-09-05T10:23:49.703Z,26.56
2022-09-05T10:26:21.275Z,26.62
2022-09-05T10:28:53.308Z,26.43
2022-09-05T10:35:04.823Z,26.67
2022-09-05T10:35:08.190Z,26.62
2022-09-05T10:37:10.778Z,26.83
2022-09-05T10:39:43.235Z,26.72
2022-09-05T10:42:15.497Z,26.65
2022-09-05T10:44:48.117Z,27.12
2022-09-05T10:47:19.662Z,26.63
2022-09-05T10:49:51.556Z,26.90
2022-09-05T10:52:23.180Z,26.47
2022-09-05T10:54:57.559Z,26.51
2022-09-05T10:57:46.257Z,27.02
2022-09-05T11:02:22.124Z,27.52
2022-09-05T11:03:22.371Z,27.16
2022-09-05T11:05:54.577Z,26.41
2022-09-05T11:08:27.458Z,26.73
2022-09-05T11:10:59.011Z,26.77
2022-09-05T11:13:30.807Z,27.01
2022-09-05T11:16:04.767Z,27.03
2022-09-05T11:18:55.878Z,27.00
2022-09-05T11:21:28.094Z,27.12
2022-09-05T11:23:59.943Z,26.83
2022-09-05T11:26:31.557Z,26.65
2022-09-05T11:29:03.378Z,26.75
2022-09-05T11:31:54.824Z,26.90
2022-09-05T11:39:50.616Z,26.53
2022-09-05T11:40:02.464Z,27.22
2022-09-05T11:40:30.054Z,27.55
2022-09-05T11:43:02.456Z,27.45
2022-09-05T11:45:34.520Z,27.46
2022-09-05T11:48:08.787Z,26.63
2022-09-05T11:50:40.307Z,26.80
2022-09-05T11:53:12.148Z,26.81
2022-09-05T11:55:43.748Z,27.01
2022-09-05T11:58:43.218Z,27.34
2022-09-05T12:01:41.135Z,27.45
2022-09-05T12:04:01.109Z,27.51
2022-09-05T12:06:35.408Z,27.41
2022-09-05T12:09:09.133Z,27.13
2022-09-05T12:11:43.315Z,26.64
2022-09-05T12:14:21.218Z,26.72
2022-09-05T12:16:57.106Z,26.58
2022-09-05T12:19:29.530Z,26.94
2022-09-05T12:22:08.793Z,26.80
2022-09-05T12:24:48.204Z,27.26
2022-09-05T12:27:46.182Z,27.38
2022-09-05T12:30:18.189Z,27.12
2022-09-05T12:36:08.578Z,26.73
2022-09-05T12:36:12.759Z,26.88
2022-09-05T12:40:55.373Z,26.49
2022-09-05T12:41:45.235Z,26.60
2022-09-05T12:44:41.235Z,26.38
2022-09-05T12:47:16.830Z,26.60
2022-09-05T12:49:52.340Z,26.75
2022-09-05T12:52:25.250Z,26.99
2022-09-05T12:54:59.253Z,26.76
2022-09-05T12:59:48.174Z,27.19
2022-09-05T13:03:08.605Z,26.43
2022-09-05T13:03:27.822Z,26.71
2022-09-05T13:06:08.743Z,26.70
2022-09-05T13:08:44.229Z,26.40
2022-09-05T13:14:50.670Z,26.42
2022-09-05T13:14:55.594Z,26.53
2022-09-05T13:17:01.074Z,26.82
2022-09-05T13:19:32.915Z,27.07
2022-09-05T13:22:04.954Z,27.15
2022-09-05T13:24:37.430Z,26.73
2022-09-05T13:27:09.237Z,26.08
2022-09-05T13:31:13.739Z,26.21
2022-09-05T13:37:56.439Z,26.84
2022-09-05T13:38:11.257Z,26.68
2022-09-05T13:38:47.925Z,26.57
2022-09-05T13:41:27.248Z,26.66
2022-09-05T13:44:25.591Z,26.50
2022-09-05T13:46:58.490Z,26.87
2022-09-05T13:49:32.209Z,26.82
2022-09-05T13:52:05.708Z,26.84
2022-09-05T13:54:37.299Z,26.71
2022-09-05T13:57:16.272Z,26.91
2022-09-05T14:00:03.073Z,26.90
2022-09-05T14:02:35.019Z,27.36
2022-09-05T14:05:20.075Z,27.36
2022-09-05T14:07:52.493Z,27.54
2022-09-05T14:10:24.051Z,27.52
2022-09-05T14:13:00.829Z,27.09
2022-09-05T14:15:33.161Z,27.10
2022-09-05T14:18:20.244Z,26.98
2022-09-05T14:21:12.420Z,27.48
2022-09-05T14:23:45.432Z,27.75
2022-09-05T14:26:16.950Z,27.57
2022-09-05T14:28:49.495Z,27.91
2022-09-05T14:35:45.659Z,27.97
2022-09-05T14:37:43.566Z,28.20
2022-09-05T14:37:48.499Z,28.23
2022-09-05T14:39:56.425Z,27.91
2022-09-05T14:42:28.497Z,28.06
2022-09-05T14:45:00.008Z,27.84
2022-09-05T14:47:32.301Z,28.21
2022-09-05T14:50:07.204Z,28.36
2022-09-05T14:52:43.975Z,28.08
2022-09-05T15:02:43.969Z,28.73
2022-09-05T15:02:54.498Z,28.32
2022-09-05T15:06:32.976Z,29.29
2022-09-05T15:12:14.375Z,28.55
2022-09-05T15:12:28.576Z,28.17
2022-09-05T15:14:50.113Z,28.07
2022-09-05T15:17:24.919Z,28.40
2022-09-05T15:20:05.728Z,28.27
2022-09-05T15:22:39.987Z,27.97
2022-09-05T15:25:16.820Z,27.78
2022-09-05T15:27:49.832Z,27.28
2022-09-05T15:30:21.390Z,26.91
2022-09-05T15:32:53.402Z,26.56
2022-09-05T15:35:24.899Z,26.25
2022-09-05T15:37:56.430Z,25.70
2022-09-05T15:40:27.974Z,25.39
2022-09-05T15:43:00.788Z,25.24
2022-09-05T15:45:32.356Z,25.04
2022-09-05T15:48:04.477Z,24.85
2022-09-05T15:50:35.973Z,24.61
2022-09-05T15:53:07.600Z,24.66
2022-09-05T15:55:39.128Z,24.54
2022-09-05T15:58:11.069Z,24.61
2022-09-05T16:00:42.627Z,24.40
2022-09-05T16:03:42.592Z,24.42
2022-09-05T16:10:31.608Z,24.48
2022-09-05T16:10:40.244Z,24.43
2022-09-05T16:12:16.865Z,24.33
2022-09-05T16:14:43.556Z,24.20
2022-09-05T16:23:15.376Z,24.23
2022-09-05T16:23:27.782Z,24.12
2022-09-05T16:23:39.357Z,23.91
2022-09-05T16:26:06.995Z,24.00
2022-09-05T16:28:41.396Z,23.90
2022-09-05T16:31:13.091Z,23.77
2022-09-05T16:33:44.959Z,23.13
2022-09-05T16:36:16.589Z,23.73
2022-09-05T16:38:50.400Z,23.76
2022-09-05T16:41:24.602Z,23.60
2022-09-05T16:43:56.538Z,23.47
2022-09-05T16:46:28.135Z,23.36
2022-09-05T16:49:00.004Z,23.35
2022-09-05T16:51:35.499Z,23.31
2022-09-05T16:54:10.299Z,23.29
2022-09-05T16:56:42.936Z,23.16
2022-09-05T16:59:15.759Z,22.99
2022-09-05T17:01:47.777Z,22.96
2022-09-05T17:04:26.576Z,22.93
2022-09-05T17:06:58.971Z,22.90
2022-09-05T17:09:30.666Z,22.84
2022-09-05T17:12:02.655Z,22.63
2022-09-05T17:14:34.316Z,22.63
2022-09-05T17:17:43.911Z,22.54
2022-09-05T17:20:07.333Z,22.35
2022-09-05T17:26:08.333Z,22.26
2022-09-05T17:29:23.473Z,22.13
2022-09-05T17:29:34.133Z,22.04
2022-09-05T17:34:08.270Z,21.95
2022-09-05T17:36:41.365Z,21.93
2022-09-05T17:39:14.744Z,21.79
2022-09-05T17:41:46.686Z,21.74
2022-09-05T17:44:19.309Z,21.70
2022-09-05T17:46:52.118Z,21.60
2022-09-05T17:49:23.644Z,21.53
2022-09-05T17:51:55.351Z,21.47
2022-09-05T17:54:26.872Z,21.41
2022-09-05T17:56:58.478Z,21.33
2022-09-05T17:59:31.469Z,21.27
2022-09-05T18:02:03.416Z,21.19
2022-09-05T18:04:35.120Z,21.11
2022-09-05T18:07:06.777Z,21.06
2022-09-05T18:09:39.741Z,21.02
2022-09-05T18:13:11.902Z,20.95
2022-09-05T18:15:05.197Z,20.90
2022-09-05T18:17:40.205Z,20.83
2022-09-05T18:20:11.835Z,20.70
2022-09-05T18:22:43.658Z,20.71
2022-09-05T18:25:28.410Z,20.69
2022-09-05T18:28:06.665Z,20.59
2022-09-05T18:30:38.529Z,20.58
2022-09-05T18:33:53.837Z,20.52
2022-09-05T18:36:01.833Z,20.47
2022-09-05T18:38:51.823Z,20.44
2022-09-05T18:41:24.718Z,20.36
2022-09-05T18:44:12.436Z,20.29
2022-09-05T18:46:46.647Z,20.25
2022-09-05T18:50:23.969Z,20.22
2022-09-05T18:52:10.915Z,20.17
2022-09-05T18:54:42.895Z,20.14
2022-09-05T18:57:28.243Z,20.11
2022-09-05T19:00:00.626Z,20.03
2022-09-05T19:02:49.845Z,19.99
2022-09-05T19:05:28.824Z,19.99
2022-09-05T19:08:00.970Z,19.95
2022-09-05T19:10:36.510Z,19.88
2022-09-05T19:13:08.484Z,19.84
2022-09-05T19:15:40.321Z,19.85
2022-09-05T19:18:36.971Z,19.77
2022-09-05T19:21:11.878Z,19.76
2022-09-05T19:23:43.703Z,19.71
2022-09-05T19:26:15.279Z,19.71
2022-09-05T19:36:47.126Z,19.70
2022-09-05T19:36:52.702Z,19.64
2022-09-05T19:37:22.637Z,19.60
2022-09-05T19:37:39.655Z,19.55
2022-09-05T19:47:30.752Z,19.50
2022-09-05T19:47:42.048Z,19.45
2022-09-05T19:47:49.235Z,19.42
2022-09-05T19:48:50.448Z,19.41
2022-09-05T19:51:26.739Z,19.31
2022-09-05T19:54:04.839Z,19.29
2022-09-05T19:56:37.909Z,19.29
2022-09-05T19:59:09.452Z,19.24
2022-09-05T20:01:41.288Z,19.21
2022-09-05T20:04:16.397Z,19.17
2022-09-05T20:06:47.984Z,19.13
2022-09-05T20:09:19.509Z,19.11
2022-09-05T20:11:51.133Z,19.07
2022-09-05T20:14:23.000Z,19.01
2022-09-05T20:16:54.532Z,18.97
2022-09-05T20:19:28.847Z,18.97
2022-09-05T20:22:14.390Z,18.92
2022-09-05T20:24:52.868Z,18.81
2022-09-05T20:27:27.515Z,18.85
2022-09-05T20:30:00.303Z,18.83
2022-09-05T20:32:39.304Z,18.81
2022-09-05T20:37:21.374Z,18.77
2022-09-05T20:43:18.293Z,18.72
2022-09-05T20:43:35.204Z,18.66
2022-09-05T20:43:50.168Z,18.65
2022-09-05T20:47:46.443Z,18.63
2022-09-05T20:54:19.758Z,18.60
2022-09-05T20:54:28.758Z,18.54
2022-09-05T20:54:59.100Z,18.52
2022-09-05T20:57:50.816Z,18.46
2022-09-05T21:00:22.618Z,18.42
2022-09-05T21:02:56.142Z,18.42
2022-09-05T21:05:28.370Z,18.36
2022-09-05T21:08:07.646Z,18.40
2022-09-05T21:10:47.170Z,18.41
2022-09-05T21:13:28.331Z,18.39
2022-09-05T21:16:00.036Z,18.42
2022-09-05T21:18:33.323Z,18.39
2022-09-05T21:21:28.057Z,18.31
2022-09-05T21:23:57.455Z,18.32
2022-09-05T21:26:32.473Z,18.20
2022-09-05T21:29:04.412Z,18.20
2022-09-05T21:31:36.430Z,18.14
2022-09-05T21:34:09.564Z,18.12
2022-09-05T21:36:43.127Z,18.06
2022-09-05T21:39:17.257Z,17.98
2022-09-05T21:41:50.254Z,17.93
2022-09-05T21:47:34.443Z,17.89
2022-09-05T21:47:46.174Z,17.80
2022-09-05T21:50:30.505Z,17.80
2022-09-05T21:55:51.780Z,17.71
2022-09-05T21:59:14.250Z,17.61
2022-09-05T21:59:24.926Z,17.56
2022-09-05T22:01:52.336Z,17.56
2022-09-05T22:04:24.881Z,17.49
2022-09-05T22:06:57.563Z,17.44
2022-09-05T22:09:29.156Z,17.41
2022-09-05T22:12:00.744Z,17.37
2022-09-05T22:14:41.935Z,17.37
2022-09-05T22:17:14.364Z,17.33
2022-09-05T22:19:47.095Z,17.31
2022-09-05T22:22:18.619Z,17.26
2022-09-05T22:24:50.164Z,17.24
2022-09-05T22:27:22.148Z,17.22
2022-09-05T22:29:55.502Z,17.22
2022-09-05T22:32:32.311Z,17.17
2022-09-05T22:35:15.740Z,17.17
2022-09-05T22:37:59.676Z,17.12
2022-09-05T22:40:31.605Z,17.09
2022-09-05T22:43:03.495Z,17.08
2022-09-05T22:45:35.093Z,17.04
2022-09-05T22:48:07.049Z,17.00
2022-09-05T22:50:38.601Z,16.99
2022-09-05T22:53:10.793Z,16.95
2022-09-05T22:55:42.314Z,16.93
2022-09-05T22:58:14.285Z,16.87
2022-09-05T23:00:46.173Z,16.84
2022-09-05T23:03:18.184Z,16.81
2022-09-05T23:05:49.912Z,16.80
2022-09-05T23:08:21.881Z,16.77
2022-09-05T23:10:53.453Z,16.77
2022-09-05T23:13:25.454Z,16.75
2022-09-05T23:15:57.139Z,16.81
2022-09-05T23:18:28.685Z,16.76
2022-09-05T23:21:00.218Z,16.76
2022-09-05T23:23:31.998Z,16.78
2022-09-05T23:26:03.569Z,16.76
2022-09-05T23:28:39.449Z,16.75
2022-09-05T23:31:13.826Z,16.72
2022-09-05T23:33:45.776Z,16.69
2022-09-05T23:36:17.301Z,16.70
2022-09-05T23:38:49.081Z,16.66
2022-09-05T23:41:20.613Z,16.64
2022-09-05T23:43:52.514Z,16.61
2022-09-05T23:46:24.438Z,16.61
2022-09-05T23:48:56.055Z,16.58
2022-09-05T23:51:28.099Z,16.58
2022-09-05T23:53:59.680Z,16.55
2022-09-05T23:56:31.639Z,16.49
2022-09-05T23:59:03.205Z,16.48
